CheckWX is a tool to help pilots better visualize weather data.  It is not intended as a substitute for an official pre-flight weather briefing.

12:43:30 UTC

KAIT METAR
Aitkin Municipal-Steve Kurtz Field Airport
Aitkin, Minnesota, USA
Current

9 mins ago

KAIT 201235Z AUTO 30003KT 10SM CLR 04/03 A3011 RMK AO2
Observed
May-20 @ 12:35 UTC
Wind
  • 300° at 3 KTS
Visibility
10 SM
Flight Rules
VFR
Cloud Levels
  • Clear skies
Temperature
C / 39°F
Dewpoint
C / 37°F
Humidity
93%
Altimeter
30.11" Hg
Pressure
1019.62 hPa
Previous

29 mins ago

KAIT 201215Z AUTO 00000KT 10SM CLR 03/02 A3011 RMK AO2
Observed
May-20 @ 12:15 UTC
Visibility
10 SM
Flight Rules
VFR
Cloud Levels
  • Clear skies
Temperature
C / 37°F
Dewpoint
C / 36°F
Humidity
93%
Altimeter
30.11" Hg
Pressure
1019.62 hPa
Previous

48 mins ago

KAIT 201156Z AUTO 00000KT 3SM BR CLR M01/M02 A3010 RMK AO2
Observed
May-20 @ 11:56 UTC
Visibility
3 SM
Flight Rules
MVFR
Conditions
Mist
Cloud Levels
  • Clear skies
Temperature
-1°C / 30°F
Dewpoint
-2°C / 28°F
Humidity
93%
Altimeter
30.1" Hg
Pressure
1019.32 hPa